»·PEaware :: N448RA KBFL-KSBD

N448RA :: KBFL-KSBD

FLIGHT INFORMATION

Flight Status: Arrived
Operator: Privately registered:
United States
More flights under this callsign
Pilot: Scott M. (16181)
Aircraft: Unknown
(DA62)
More flights by this aircraft type
Origin: KBFL Meadows
United States
Destination: KSBD San Bernardino Intl
United States
More flights between these airports :: More routes between these airports
Route:
File this flight plan on PilotEdge
Remarks:
Altitude:
(Current/Filed)
9,500ft
Speed:
(Current/Filed)
160kts
Departed: 24-Jun-18 05:25 PM
Arrived: 24-Jun-18 06:18 PM
Distance/Time
Traveled:
120nm/0:53
Distance/Time
To Go:
Arrived

Flight Plot

Page will automatically refresh every two minutes.


Map Options




Map Legend


Flown Route
Filed Route
Departure Airport
Arrival Airport
Navaid (VOR, NDB)
Fix

Horizontal Profiles

Position Reports

Time Latitude Longitude Heading Altitude Ground
Speed
24-Jun-18 17:09 35.429368 -119.046105 226 494ft 0kts
24-Jun-18 17:10 35.429368 -119.046105 226 494ft 0kts
24-Jun-18 17:11 35.429368 -119.046105 226 494ft 0kts
24-Jun-18 17:12 35.429368 -119.046105 226 494ft 0kts
24-Jun-18 17:13 35.429368 -119.046105 226 494ft 0kts
24-Jun-18 17:14 35.429368 -119.046105 226 494ft 0kts
24-Jun-18 17:15 35.429368 -119.046105 226 494ft 0kts
24-Jun-18 17:16 35.429368 -119.046105 226 494ft 0kts
24-Jun-18 17:17 35.429368 -119.046105 226 494ft 0kts
24-Jun-18 17:18 35.429368 -119.046105 226 494ft 0kts
24-Jun-18 17:19 35.428743 -119.046879 222 490ft 13kts
24-Jun-18 17:20 35.425749 -119.044727 218 480ft 0kts
24-Jun-18 17:21 35.425749 -119.044727 218 480ft 0kts
24-Jun-18 17:22 35.425749 -119.044727 218 480ft 0kts
24-Jun-18 17:23 35.425749 -119.044727 218 480ft 0kts
24-Jun-18 17:24 35.425527 -119.045888 290 476ft 20kts
24-Jun-18 17:25 35.439705 -119.063953 312 803ft 111kts
24-Jun-18 17:26 35.439296 -119.096694 222 1520ft 141kts
24-Jun-18 17:27 35.409672 -119.085583 125 2233ft 145kts
24-Jun-18 17:28 35.387300 -119.045786 125 3031ft 141kts
24-Jun-18 17:29 35.362908 -119.008051 122 3766ft 143kts
24-Jun-18 17:30 35.348130 -118.966787 99 4617ft 128kts
24-Jun-18 17:31 35.331101 -118.929856 125 5604ft 124kts
24-Jun-18 17:32 35.308018 -118.899795 129 6597ft 118kts
24-Jun-18 17:33 35.284859 -118.870723 130 7545ft 123kts
24-Jun-18 17:34 35.260467 -118.840240 131 8451ft 127kts
24-Jun-18 17:35 35.235641 -118.809123 135 9348ft 128kts
24-Jun-18 17:36 35.208953 -118.775990 134 9743ft 152kts
24-Jun-18 17:37 35.177851 -118.737301 133 9737ft 166kts
24-Jun-18 17:38 35.145066 -118.696476 131 9737ft 171kts
24-Jun-18 17:39 35.111272 -118.654458 131 9617ft 173kts
24-Jun-18 17:40 35.077783 -118.612811 131 9618ft 172kts
24-Jun-18 17:41 35.045171 -118.572329 131 9618ft 173kts
24-Jun-18 17:42 35.011357 -118.530455 131 9618ft 174kts
24-Jun-18 17:43 34.977425 -118.488494 131 9618ft 174kts
24-Jun-18 17:44 34.943544 -118.446641 131 9640ft 172kts
24-Jun-18 17:45 34.909631 -118.404814 131 9627ft 174kts
24-Jun-18 17:46 34.877052 -118.364680 131 9626ft 173kts
24-Jun-18 17:47 34.843449 -118.323401 131 9510ft 179kts
24-Jun-18 17:48 34.808924 -118.280773 133 9500ft 174kts
24-Jun-18 17:49 34.775325 -118.239630 134 9500ft 170kts
24-Jun-18 17:50 34.742160 -118.199013 134 9502ft 169kts
24-Jun-18 17:51 34.709344 -118.158848 134 9500ft 167kts
24-Jun-18 17:52 34.676734 -118.118945 134 9500ft 167kts
24-Jun-18 17:53 34.644034 -118.079006 134 9503ft 166kts
24-Jun-18 17:54 34.617914 -118.033757 119 9204ft 162kts
24-Jun-18 17:55 34.596030 -117.985771 120 8705ft 162kts
24-Jun-18 17:56 34.574178 -117.937906 121 8117ft 163kts
24-Jun-18 17:57 34.552226 -117.889886 122 7531ft 161kts
24-Jun-18 17:58 34.530145 -117.841758 121 7505ft 164kts
24-Jun-18 17:59 34.507863 -117.793168 120 7509ft 166kts
24-Jun-18 18:00 34.485408 -117.744248 120 7507ft 166kts
24-Jun-18 18:01 34.462689 -117.694853 120 7508ft 168kts
24-Jun-18 18:02 34.440147 -117.646102 121 7303ft 157kts
24-Jun-18 18:03 34.419047 -117.600449 121 6978ft 153kts
24-Jun-18 18:04 34.397507 -117.553712 121 6592ft 165kts
24-Jun-18 18:05 34.373235 -117.521606 147 6257ft 157kts
24-Jun-18 18:06 34.349873 -117.502068 146 5999ft 157kts
24-Jun-18 18:07 34.316200 -117.473848 147 5582ft 146kts
24-Jun-18 18:08 34.281062 -117.453018 164 5011ft 146kts
24-Jun-18 18:09 34.244110 -117.431371 139 4072ft 162kts
24-Jun-18 18:10 34.213568 -117.395270 135 3190ft 157kts
24-Jun-18 18:11 34.184683 -117.358252 139 2637ft 151kts
24-Jun-18 18:12 34.167644 -117.338301 138 2292ft 106kts
24-Jun-18 18:13 34.149964 -117.310984 132 2093ft 108kts
24-Jun-18 18:14 34.131279 -117.283116 138 1980ft 107kts
24-Jun-18 18:15 34.114782 -117.254700 85 1952ft 114kts
24-Jun-18 18:16 34.121692 -117.218051 76 1922ft 110kts
24-Jun-18 18:17 34.105386 -117.203438 225 1634ft 85kts
24-Jun-18 18:18 34.097771 -117.226384 251 1139ft 15kts
24-Jun-18 18:19 34.095884 -117.236059 331 1114ft 0kts
24-Jun-18 18:20 34.095360 -117.240874 250 1101ft 23kts
24-Jun-18 18:21 34.097699 -117.241979 358 1100ft 16kts
24-Jun-18 18:22 34.102560 -117.243526 317 1101ft 17kts
24-Jun-18 18:23 34.104273 -117.245226 325 1099ft 0kts
24-Jun-18 18:24 34.104273 -117.245226 325 1099ft 0kts

Navigation Log

Ident Type
1. KBFL Airport
2. KSBD Airport